createdAt,value
2022-08-05T00:01:20.940Z,55.41
2022-08-05T00:05:05.899Z,55.33
2022-08-05T00:08:00.521Z,55.46
2022-08-05T00:11:30.219Z,55.23
2022-08-05T00:15:57.994Z,55.50
2022-08-05T00:18:21.359Z,55.99
2022-08-05T00:27:04.689Z,56.54
2022-08-05T00:34:54.892Z,55.82
2022-08-05T00:37:11.418Z,56.05
2022-08-05T00:41:17.120Z,56.14
2022-08-05T00:44:37.944Z,56.68
2022-08-05T00:48:13.980Z,56.91
2022-08-05T00:51:50.728Z,56.51
2022-08-05T00:54:30.365Z,56.65
2022-08-05T00:57:21.245Z,56.77
2022-08-05T01:00:26.951Z,56.46
2022-08-05T01:03:33.407Z,56.96
2022-08-05T01:06:15.601Z,56.43
2022-08-05T01:09:08.779Z,56.78
2022-08-05T01:11:54.895Z,56.79
2022-08-05T01:14:42.918Z,57.00
2022-08-05T01:21:37.867Z,57.24
2022-08-05T01:25:39.746Z,57.04
2022-08-05T01:27:55.661Z,57.56
2022-08-05T01:31:55.125Z,57.44
2022-08-05T01:35:10.698Z,57.67
2022-08-05T01:37:51.361Z,57.67
2022-08-05T01:40:36.059Z,57.24
2022-08-05T01:43:41.873Z,58.24
2022-08-05T01:47:07.834Z,58.10
2022-08-05T01:50:01.628Z,58.59
2022-08-05T01:52:52.175Z,57.99
2022-08-05T01:59:24.254Z,58.02
2022-08-05T02:05:11.831Z,58.86
2022-08-05T02:08:58.281Z,58.69
2022-08-05T03:02:27.647Z,59.52
2022-08-05T03:27:09.299Z,59.97
2022-08-05T03:39:47.431Z,59.64
2022-08-05T03:43:59.219Z,59.46
2022-08-05T03:46:03.697Z,59.24
2022-08-05T03:48:40.278Z,58.90
2022-08-05T03:59:54.939Z,58.33
2022-08-05T04:03:32.065Z,57.89
2022-08-05T04:54:07.828Z,56.85
2022-08-05T04:57:28.666Z,56.23
2022-08-05T05:00:29.061Z,56.39
2022-08-05T05:03:58.715Z,55.74
2022-08-05T05:06:51.915Z,55.54
2022-08-05T05:09:51.239Z,55.15
2022-08-05T22:11:16.659Z,51.81
2022-08-05T22:14:33.608Z,51.89
2022-08-05T22:16:51.886Z,52.54
2022-08-05T22:20:11.376Z,53.27
2022-08-05T22:23:16.827Z,52.42
2022-08-05T22:26:15.050Z,52.61
2022-08-05T22:30:09.816Z,52.73
2022-08-05T22:32:36.566Z,52.34
2022-08-05T22:35:04.790Z,53.06
2022-08-05T22:37:58.875Z,52.76
2022-08-05T22:40:27.930Z,52.77
2022-08-05T22:43:08.365Z,52.91
2022-08-05T22:45:42.934Z,52.87
2022-08-05T22:48:22.115Z,53.49
2022-08-05T22:50:59.065Z,53.27
2022-08-05T22:53:35.989Z,53.02
2022-08-05T22:56:05.163Z,53.44
2022-08-05T22:58:43.753Z,53.57
2022-08-05T23:01:14.245Z,53.21
2022-08-05T23:03:58.126Z,53.52
2022-08-05T23:06:59.863Z,53.83
2022-08-05T23:09:58.230Z,53.31
2022-08-05T23:12:24.451Z,53.01
2022-08-05T23:14:57.723Z,53.25
2022-08-05T23:17:59.648Z,53.55
2022-08-05T23:20:25.190Z,53.29
2022-08-05T23:23:00.531Z,53.40
2022-08-05T23:25:51.955Z,53.81
2022-08-05T23:28:36.151Z,53.33
2022-08-05T23:31:16.967Z,52.77
2022-08-05T23:34:04.519Z,53.11
2022-08-05T23:36:44.897Z,53.53
2022-08-05T23:39:31.974Z,53.10
2022-08-05T23:42:02.809Z,52.73
2022-08-05T23:44:42.684Z,53.27
2022-08-05T23:47:17.306Z,52.71
2022-08-05T23:49:49.328Z,52.29
2022-08-05T23:52:49.871Z,52.86
2022-08-05T23:55:31.161Z,53.00
2022-08-05T23:58:02.104Z,52.84
